Salamonie, Indiana
Current Conditions -  °F | °C
As of 10:55 AM on Saturday 20 Dec 2014 (Local Time) from KHHG Reporting Station
Haze Haze  
Wind Chill: 30°   Ceiling: 500
Heat Index: 30°   Visibility: 3mi
Dew Point: 29°   Wind: 0mph
Humidity: 94%   Direction: NA
Pressure: 30.29"   Gusts: NA
Location:  40.6897°N, 85.3916°W
Report Text: KHHG 201555Z AUTO 00000KT 3SM BR OVC005 M01/M02 A3029 RMK AO2 T10111019
Loading
Personal Weather Stations






























Interactive Weather Map New forecast layout! Learn more

10-Day Weather Forecast

Advertisements
Track Severe Weather on mobile